Latest Coastal Weather Observations for Cocos Island

IDW60701

Issued at 1:53 pm WST Saturday 25 March 2017 (issued every 10 minutes, with the page automatically refreshed every 10 minutes)

About coastal observations | Map of coastal stations | Coastal observations for WA | Marine services | Other Formats
Station Details ID: 200284 Name: COCOS ISLAND AIRPORT Lat: -12.19 Lon: 96.83 Height: 3.0 m
Data from the previous 72 hours. | See also: Recent months at Cocos Island
Date/Time
WST
Temp
°C
Wind Pressure Rain since
9am
mm
Weather Cloud Vis
km
Sea
Height
m
Swell
Dir  Spd
kts
Gust
kts
hPa Trend Height
m
Period
s
Dir
25/01:30pm 28.7 SW 9 11 1009.8 - 0.0 - Partly cloudy 10 - - - -
25/01:00pm 29.0 SW 9 11 1010.1 - 0.0 - Partly cloudy 10 - - - -
25/12:30pm 28.7 SSW 8 11 1010.5 - 0.0 - Partly cloudy 10 - - - -
25/12:00pm 28.7 SSW 9 12 1010.6 - 0.0 - Partly cloudy 10 - - - -
25/11:30am 28.6 SSW 9 13 1010.7 - 0.0 - Partly cloudy 10 - - - -
25/11:00am 27.9 SSW 10 13 1010.6 - 4.8 - Mostly clear 10 - - - -
25/10:30am 27.7 SW 10 13 1010.5 - 4.8 - Partly cloudy 10 - - - -
25/10:00am 27.5 SW 8 11 1010.4 - 4.8 - Partly cloudy 10 - - - -
25/09:30am 26.9 SSW 9 11 1010.0 - 4.8 - Partly cloudy 10 - - - -
25/09:00am 26.6 SSW 10 14 1009.7 - 4.8 - Partly cloudy 10 - - - -
25/08:30am 26.1 S 10 13 1009.3 - 4.8 - - 9 - - - -
25/08:00am 26.0 SSW 10 13 1008.9 - 4.8 - Mostly clear 10 - - - -
25/07:30am 26.0 S 12 15 1008.7 - 4.8 - - 10 - - - -
25/07:25am 26.0 S 12 15 1008.7 - 4.8 - - 10 - - - -
25/07:03am 26.0 SSW 10 13 1008.5 - 4.8 - - 2 - - - -
25/07:00am 26.1 SSW 10 13 1008.5 - 4.8 - - 10 - - - -
25/06:30am 25.8 S 9 13 1008.2 - 4.8 - Partly cloudy 9 - - - -
25/06:00am 26.1 SSW 11 15 1008.2 - 4.8 - Partly cloudy 10 - - - -
25/05:37am 25.9 SSW 11 15 1008.1 - 4.8 - Partly cloudy 10 - - - -
25/05:30am 25.9 SSW 12 17 1008.1 - 4.8 - Partly cloudy 10 - - - -
25/05:25am 26.0 S 12 17 1008.1 - 4.8 - Partly cloudy 10 - - - -
25/05:00am 25.3 SSW 8 11 1008.1 - 4.8 - Cloudy 7 - - - -
25/04:34am 25.1 S 10 13 1008.2 - 4.8 - Partly cloudy 8 - - - -
25/04:30am 25.1 S 9 13 1008.2 - 4.6 - Partly cloudy 8 - - - -
25/04:11am 24.8 S 12 15 1008.3 - 4.6 - Partly cloudy 5 - - - -
25/04:07am 24.8 S 12 16 1008.3 - 4.6 - Partly cloudy 6 - - - -
25/04:00am 24.8 SSE 13 17 1008.4 - 4.4 - Partly cloudy 9 - - - -
25/03:49am 25.0 SSE 14 16 1008.5 - 4.4 - Partly cloudy 10 - - - -
25/03:44am 25.3 SSW 7 11 1008.4 - 4.4 - Partly cloudy 9 - - - -
25/03:31am 25.2 S 9 13 1008.6 - 4.4 - Partly cloudy 6 - - - -
25/03:30am 25.3 S 9 13 1008.6 - 4.4 - Partly cloudy 7 - - - -
25/03:26am 25.2 S 9 12 1008.6 - 4.4 - Partly cloudy 9 - - - -
25/03:01am 24.8 S 13 17 1008.8 - 4.4 - Partly cloudy 6 - - - -
25/03:00am 24.8 S 13 17 1008.9 - 4.2 - Partly cloudy 7 - - - -
25/02:30am 25.3 S 11 13 1009.0 - 4.0 - Partly cloudy 10 - - - -
25/02:00am 25.1 S 11 14 1009.2 - 4.0 - Mostly cloudy 10 - - - -
25/01:54am 25.1 S 12 14 1009.4 - 4.0 - Partly cloudy 10 - - - -
25/01:30am 25.0 S 14 17 1009.7 - 4.0 - Partly cloudy 10 - - - -
25/01:23am 24.9 S 14 18 1009.7 - 4.0 - Partly cloudy 10 - - - -
25/01:00am 25.2 S 13 17 1009.6 - 4.0 - Partly cloudy 10 - - - -
25/12:58am 25.2 S 13 16 1009.6 - 4.0 - Partly cloudy 10 - - - -
25/12:40am 24.8 S 15 21 1009.8 - 4.0 - Partly cloudy 6 - - - -
25/12:30am 25.2 S 17 19 1009.8 - 4.0 - Partly cloudy 10 - - - -
25/12:00am 26.0 SSW 13 17 1010.0 - 4.0 - Partly cloudy 10 - - - -
 
Date/Time
WST
Temp
°C
Wind Pressure Rain since
9am
mm
Weather Cloud Vis
km
Sea
Height
m
Swell
Dir  Spd
kts
Gust
kts
hPa Trend Height
m
Period
s
Dir
24/11:59pm 26.0 SSW 13 17 1010.0 - 4.0 - Partly cloudy 10 - - - -
24/11:46pm 25.6 S 12 16 1010.0 - 4.0 - Partly cloudy 6 - - - -
24/11:30pm 26.1 SSW 13 19 1010.0 - 3.8 - Partly cloudy 10 - - - -
24/11:05pm 26.0 S 12 15 1009.8 - 3.8 - Partly cloudy 10 - - - -
24/11:00pm 25.9 S 13 16 1009.6 - 3.8 - Cloudy 10 - - - -
24/10:46pm 25.6 S 15 20 1009.6 - 3.8 - Partly cloudy 4 - - - -
24/10:30pm 25.6 S 17 21 1009.5 - 3.8 - Partly cloudy 10 - - - -
24/10:08pm 26.1 SSW 13 18 1009.2 - 3.8 - Partly cloudy 10 - - - -
24/10:00pm 25.6 SSW 12 15 1009.2 - 3.8 - Partly cloudy 8 - - - -
24/09:52pm 25.3 SSW 13 19 1009.2 - 3.8 - Partly cloudy 6 - - - -
24/09:30pm 26.1 SSW 13 17 1008.8 - 3.6 - Partly cloudy 10 - - - -
24/09:07pm 26.0 SSW 13 18 1008.6 - 3.6 - Partly cloudy 10 - - - -
24/09:00pm 26.0 SSW 13 17 1008.6 - 3.6 - Partly cloudy 9 - - - -
24/08:57pm 26.0 SSW 13 17 1008.6 - 3.6 - Partly cloudy 9 - - - -
24/08:30pm 25.8 SW 12 15 1008.3 - 3.6 - Partly cloudy 10 - - - -
24/08:00pm 25.3 SW 12 16 1007.9 - 3.6 - Cloudy 10 - - - -
24/07:53pm 25.1 SW 13 16 1007.9 - 3.6 - Partly cloudy 10 - - - -
24/07:30pm 24.8 SSW 13 16 1007.7 - 3.4 - Partly cloudy 6 - - - -
24/07:26pm 24.7 SSW 13 16 1007.7 - 3.4 - Partly cloudy 5 - - - -
24/07:02pm 24.5 S 15 19 1007.4 - 2.8 - Partly cloudy 4 - - - -
24/07:00pm 24.4 S 16 20 1007.4 - 2.8 - Partly cloudy 4 - - - -
24/06:52pm 24.8 S 15 20 1007.3 - 2.4 - Partly cloudy 6 - - - -
24/06:43pm 25.4 SSW 13 18 1007.2 - 2.4 - Partly cloudy 8 - - - -
24/06:30pm 24.9 S 17 21 1007.1 - 2.4 - Partly cloudy 6 - - - -
24/06:18pm 25.0 S 17 22 1007.0 - 2.4 - Partly cloudy 6 - - - -
24/06:01pm 25.5 S 15 17 1006.9 - 2.0 - Partly cloudy 8 - - - -
24/06:00pm 25.7 SW 13 17 1006.9 - 2.0 - Partly cloudy 9 - - - -
24/05:41pm 25.1 S 18 23 1006.9 - 2.0 - Partly cloudy 6 - - - -
24/05:30pm 25.3 SSW 14 22 1006.8 - 2.0 - Partly cloudy 10 - - - -
24/05:00pm 25.0 SSW 11 15 1006.7 - 0.8 - Cloudy 5 - - - -
24/04:48pm 24.9 SSW 13 20 1006.9 - 0.6 - Partly cloudy 5 - - - -
24/04:34pm 25.2 S 14 18 1006.9 - 0.4 Showers Partly cloudy 6 - - - -
24/04:30pm 25.7 S 12 17 1006.9 - 0.4 Showers Mostly clear 6 - - - -
24/04:06pm 25.6 S 15 18 1007.1 - 0.4 Showers Mostly clear 6 - - - -
24/04:00pm 25.9 S 14 18 1007.1 - 0.4 Showers Partly cloudy 10 - - - -
24/03:30pm 27.3 SSW 12 16 1007.4 - 0.4 - Partly cloudy 10 - - - -
24/03:00pm 26.6 SW 11 15 1007.8 - 0.4 - Partly cloudy 10 - - - -
24/02:30pm 26.9 SSW 14 18 1008.0 - 0.2 - Mostly clear 10 - - - -
24/02:00pm 27.0 S 15 18 1008.3 - 0.2 - Cloudy 10 - - - -
24/01:30pm 26.8 S 14 22 1008.8 - 0.2 - Partly cloudy 10 - - - -
24/01:00pm 26.1 S 15 21 1009.1 - 0.2 - Partly cloudy 10 - - - -
24/12:30pm 27.6 S 14 18 1009.4 - 0.0 - Partly cloudy 10 - - - -
24/12:00pm 27.3 S 15 19 1009.5 - 0.0 - Partly cloudy 10 - - - -
24/11:30am 27.4 S 13 18 1009.8 - 0.0 - Partly cloudy 10 - - - -
24/11:00am 27.3 S 14 17 1009.7 - 0.2 - Mostly clear 10 - - - -
24/10:30am 27.2 S 15 21 1009.6 - 0.2 - Partly cloudy 10 - - - -
24/10:00am 27.1 S 15 19 1009.4 - 0.2 - Partly cloudy 10 - - - -
24/09:30am 26.9 S 15 19 1009.0 - 0.2 - Partly cloudy 10 - - - -
24/09:00am 26.8 S 15 19 1008.7 - 0.2 - Partly cloudy 10 - - - -
24/08:30am 26.5 S 14 18 1008.2 - 0.2 - Partly cloudy 10 - - - -
24/08:00am 26.7 SSW 12 16 1007.9 - 0.2 - Mostly clear 10 - - - -
24/07:30am 26.8 S 15 18 1007.9 - 0.2 - Partly cloudy 10 - - - -
24/07:00am 26.8 S 16 20 1007.6 - 0.2 - Partly cloudy 10 - - - -
24/06:30am 26.8 S 16 19 1007.3 - 0.2 - Partly cloudy 10 - - - -
24/06:24am 26.8 S 16 21 1007.2 - 0.2 - Partly cloudy 10 - - - -
24/06:00am 26.8 S 14 18 1007.3 - 0.2 - - 6 - - - -
24/05:52am 26.7 S 14 18 1007.3 - 0.2 - - 6 - - - -
24/05:30am 26.6 S 16 19 1007.3 - 0.2 - - 10 - - - -
24/05:00am 26.7 S 16 19 1007.2 - 0.2 - - 10 - - - -
24/04:30am 26.5 S 15 20 1007.3 - 0.2 - Partly cloudy 10 - - - -
24/04:00am 26.5 S 16 20 1007.7 - 0.2 - Partly cloudy 10 - - - -
24/03:30am 26.6 S 14 17 1008.0 - 0.2 - Partly cloudy 10 - - - -
24/03:00am 26.8 S 13 17 1008.3 - 0.2 - Partly cloudy 10 - - - -
24/02:30am 26.9 S 12 17 1008.5 - 0.2 - Partly cloudy 10 - - - -
24/02:00am 26.9 SSW 13 16 1008.7 - 0.2 - Mostly clear 10 - - - -
24/01:30am 27.0 SSW 12 16 1009.2 - 0.2 - - 10 - - - -
24/01:00am 26.9 S 14 17 1009.5 - 0.2 - Partly cloudy 10 - - - -
24/12:30am 26.9 S 14 19 1009.6 - 0.2 - Partly cloudy 10 - - - -
24/12:00am 26.9 S 14 18 1009.6 - 0.2 - Partly cloudy 10 - - - -
 
Date/Time
WST
Temp
°C
Wind Pressure Rain since
9am
mm
Weather Cloud Vis
km
Sea
Height
m
Swell
Dir  Spd
kts
Gust
kts
hPa Trend Height
m
Period
s
Dir
23/11:30pm 26.8 S 15 20 1009.6 - 0.2 - Partly cloudy 10 - - - -
23/11:00pm 26.8 S 16 19 1009.5 - 0.2 - Partly cloudy 10 - - - -
23/10:30pm 27.0 S 16 19 1009.3 - 0.2 - Partly cloudy 10 - - - -
23/10:02pm 27.0 S 16 21 1008.9 - 0.2 - Partly cloudy 10 - - - -
23/10:00pm 27.0 S 17 21 1008.9 - 0.2 - Partly cloudy 10 - - - -
23/09:43pm 26.9 S 17 22 1008.7 - 0.2 - Partly cloudy 6 - - - -
23/09:30pm 26.9 S 18 23 1008.6 - 0.2 - Partly cloudy 10 - - - -
23/09:00pm 26.9 S 18 23 1008.4 - 0.2 - Partly cloudy 10 - - - -
23/08:30pm 26.8 S 18 23 1008.0 - 0.2 - Partly cloudy 10 - - - -
23/08:00pm 26.8 S 18 23 1007.5 - 0.2 - Cloudy 10 - - - -
23/07:30pm 26.6 S 17 22 1007.4 - 0.2 - Partly cloudy 10 - - - -
23/07:00pm 26.3 S 16 22 1007.4 - 0.2 - Partly cloudy 10 - - - -
23/06:30pm 26.3 S 17 22 1007.3 - 0.2 - Partly cloudy 10 - - - -
23/06:00pm 26.2 S 17 22 1007.0 - 0.2 - Partly cloudy 10 - - - -
23/05:30pm 26.0 S 18 22 1006.7 - 0.2 - Partly cloudy 10 - - - -
23/05:00pm 26.3 SSW 16 20 1006.5 - 0.2 - Cloudy 10 - - - -
23/04:30pm 26.3 S 17 21 1007.0 - 0.2 - Partly cloudy 10 - - - -
23/04:19pm 25.9 S 16 20 1007.2 - 0.2 - Partly cloudy 9 - - - -
23/04:04pm 25.1 S 18 23 1007.5 - 0.2 Showers Partly cloudy 7 - - - -
23/04:00pm 25.1 S 19 23 1007.5 - 0.2 Showers Partly cloudy 9 - - - -
23/03:30pm 26.3 SSW 14 21 1007.3 - 0.2 - Mostly clear 10 - - - -
23/03:00pm 26.4 SSW 15 21 1007.8 - 0.2 - Partly cloudy 10 - - - -
23/02:30pm 26.5 SSW 16 23 1008.0 - 0.2 - Partly cloudy 10 - - - -
23/02:00pm 26.7 SSW 17 21 1008.1 - 0.2 - Cloudy 10 - - - -
23/01:30pm 26.0 S 17 23 1008.1 - 0.2 - Partly cloudy 9 - - - -
23/01:00pm 25.6 S 16 23 1008.3 - 0.2 Showers Partly cloudy 8 - - - -
23/12:30pm 27.0 SSW 16 21 1008.9 - 0.0 - Partly cloudy 10 - - - -
23/12:00pm 26.6 S 18 23 1009.1 - 0.0 - Partly cloudy 10 - - - -
23/11:30am 26.5 S 17 23 1009.3 - 0.0 - Partly cloudy 10 - - - -
23/11:00am 25.8 S 18 22 1008.8 - 5.2 - Cloudy 9 - - - -
23/10:45am 26.2 S 17 23 1008.8 - 5.2 - Partly cloudy 10 - - - -
23/10:30am 25.5 S 18 28 1009.0 - 5.2 Showers Partly cloudy 6 - - - -
23/10:24am 26.1 S 17 28 1009.0 - 4.2 Showers Partly cloudy 6 - - - -
23/10:00am 25.9 S 17 23 1008.8 - 3.8 Showers Partly cloudy 9 - - - -
23/09:57am 25.8 SSW 15 22 1008.8 - 3.8 Showers Partly cloudy 9 - - - -
23/09:43am 25.3 S 17 23 1008.7 - 3.8 Showers Partly cloudy 6 - - - -
23/09:30am 25.3 S 19 29 1008.5 - 3.4 Showers Partly cloudy 3 - - - -
23/09:24am 25.3 S 17 29 1008.3 - 2.6 Showers Partly cloudy 3 - - - -
23/09:18am 25.1 S 16 21 1008.3 - 1.8 Showers Partly cloudy 5 - - - -
23/09:00am 26.2 SSW 16 21 1008.1 - 1.2 - Mostly clear 10 - - - -
23/08:30am 26.4 SSW 17 22 1007.7 - 1.2 - Mostly clear 10 - - - -
23/08:00am 26.2 S 19 24 1007.4 - 1.2 - Cloudy 10 - - - -
23/07:30am 26.1 S 19 23 1007.1 - 1.2 - Partly cloudy 10 - - - -
23/07:00am 26.0 S 20 25 1006.8 - 1.2 - Partly cloudy 10 - - - -
23/06:50am 25.8 S 19 23 1006.7 - 1.2 - Partly cloudy 6 - - - -
23/06:30am 25.6 S 17 22 1006.6 - 1.0 - Partly cloudy - - - - -
23/06:00am 26.0 SSW 14 18 1006.5 - 0.8 - Partly cloudy - - - - -
23/05:41am 25.2 SSW 15 26 1006.5 - 0.4 - Partly cloudy - - - - -
23/05:37am 25.7 SSW 12 16 1006.5 - 0.4 - Partly cloudy - - - - -
23/05:30am 25.2 S 17 24 1006.5 - 0.4 - Partly cloudy - - - - -
23/05:19am 25.4 S 17 27 1006.4 - 0.2 - Partly cloudy 4 - - - -
23/05:01am 27.0 S 17 21 1006.3 - 0.0 - Partly cloudy 4 - - - -
23/05:00am 26.9 S 17 21 1006.2 - 0.0 - Cloudy 10 - - - -
23/04:30am 26.9 S 18 23 1006.4 - 0.0 - Partly cloudy 10 - - - -
23/04:00am 26.9 S 18 22 1006.5 - 0.0 - Partly cloudy 10 - - - -
23/03:30am 26.8 S 19 24 1006.8 - 0.0 - Partly cloudy 10 - - - -
23/03:00am 26.8 S 18 22 1007.0 - 0.0 - Partly cloudy 10 - - - -
23/02:30am 26.8 S 19 24 1007.2 - 0.0 - Partly cloudy 10 - - - -
23/02:00am 27.1 S 19 24 1007.5 - 0.0 - Cloudy 10 - - - -
23/01:30am 27.0 S 20 24 1007.9 - 0.0 - Partly cloudy 10 - - - -
23/01:00am 27.2 S 19 25 1007.9 - 0.0 - Partly cloudy 10 - - - -
23/12:30am 27.1 S 20 25 1007.9 - 0.0 - Partly cloudy 10 - - - -
23/12:00am 27.1 S 17 21 1008.1 - 0.0 - Partly cloudy 10 - - - -
 
Date/Time
WST
Temp
°C
Wind Pressure Rain since
9am
mm
Weather Cloud Vis
km
Sea
Height
m
Swell
Dir  Spd
kts
Gust
kts
hPa Trend Height
m
Period
s
Dir
22/11:30pm 27.0 S 18 23 1008.2 - 0.0 - Partly cloudy 10 - - - -
22/11:00pm 26.8 S 21 25 1007.9 - 0.0 - Partly cloudy 10 - - - -
22/10:30pm 27.1 S 21 26 1007.6 - 0.0 - Partly cloudy 10 - - - -
22/10:00pm 27.2 S 20 26 1007.4 - 0.0 - Partly cloudy 10 - - - -
22/09:30pm 27.2 S 21 26 1007.1 - 0.0 - Partly cloudy 10 - - - -
22/09:14pm 27.1 S 21 26 1007.0 - 0.0 - Partly cloudy 10 - - - -
22/09:00pm 27.0 S 22 28 1006.8 - 0.0 - Partly cloudy 2 - - - -
22/08:53pm 27.1 S 23 29 1006.6 - 0.0 - Partly cloudy 5 - - - -
22/08:30pm 27.1 S 22 26 1006.2 - 0.0 - Partly cloudy 10 - - - -
22/08:00pm 27.1 S 20 26 1005.8 - 0.0 - Cloudy 10 - - - -
22/07:30pm 27.3 S 20 25 1005.9 - 0.0 - Partly cloudy 10 - - - -
22/07:00pm 27.4 S 23 29 1005.6 - 0.0 - Partly cloudy 10 - - - -
22/06:30pm 27.5 S 21 26 1005.2 - 0.0 - Partly cloudy 10 - - - -
22/06:00pm 27.5 S 21 26 1005.2 - 0.0 - Partly cloudy 10 - - - -
22/05:30pm 27.6 S 20 26 1005.2 - 0.0 - Partly cloudy 10 - - - -
22/05:00pm 27.3 S 21 26 1004.9 - 0.0 - Cloudy 10 - - - -
22/04:30pm 27.6 S 21 25 1005.0 - 0.0 - Partly cloudy 10 - - - -
22/04:00pm 27.2 S 22 27 1005.1 - 0.0 - Partly cloudy 10 - - - -
22/03:37pm 27.1 S 23 33 1005.3 - 0.0 Showers Partly cloudy 8 - - - -
22/03:30pm 27.7 S 21 26 1005.3 - 0.0 - Partly cloudy 10 - - - -

Other Formats:

Comma delimited format used in spreadsheet applications
http://www.bom.gov.au/fwo/IDW60701/IDW60701.96996.axf

JavaScript Object Notation format (JSON) in row-major order
http://www.bom.gov.au/fwo/IDW60701/IDW60701.96996.json